createdAt,value
2018-08-03T00:01:04.925Z,16.43
2018-08-03T00:03:35.194Z,16.97
2018-08-03T00:06:05.514Z,15.33
2018-08-03T00:08:35.857Z,16.03
2018-08-03T00:11:06.197Z,16.20
2018-08-03T00:13:36.521Z,16.50
2018-08-03T00:16:06.862Z,17.40
2018-08-03T00:18:37.218Z,15.53
2018-08-03T00:21:07.769Z,17.23
2018-08-03T00:23:38.211Z,17.23
2018-08-03T00:26:08.503Z,16.33
2018-08-03T00:28:38.886Z,17.93
2018-08-03T00:31:09.328Z,16.70
2018-08-03T00:33:39.597Z,16.00
2018-08-03T00:36:09.880Z,16.37
2018-08-03T00:38:40.173Z,15.37
2018-08-03T00:41:10.477Z,16.90
2018-08-03T00:43:40.802Z,16.57
2018-08-03T00:46:11.096Z,16.43
2018-08-03T00:48:41.408Z,17.33
2018-08-03T00:51:11.722Z,16.73
2018-08-03T00:53:42.018Z,15.90
2018-08-03T00:56:12.362Z,16.43
2018-08-03T00:58:42.655Z,16.40
2018-08-03T01:01:12.946Z,17.67
2018-08-03T01:03:43.256Z,16.40
2018-08-03T01:06:13.536Z,17.87
2018-08-03T01:08:43.826Z,17.67
2018-08-03T01:11:14.072Z,17.60
2018-08-03T01:13:44.357Z,16.47
2018-08-03T01:16:14.698Z,16.97
2018-08-03T01:18:44.978Z,16.47
2018-08-03T01:21:15.256Z,18.90
2018-08-03T01:23:45.602Z,16.80
2018-08-03T01:26:15.905Z,16.77
2018-08-03T01:28:46.200Z,17.90
2018-08-03T01:31:16.462Z,16.10
2018-08-03T01:33:46.755Z,17.80
2018-08-03T01:36:17.018Z,16.43
2018-08-03T01:38:47.309Z,17.37
2018-08-03T01:41:17.572Z,16.50
2018-08-03T01:43:47.812Z,17.33
2018-08-03T01:46:18.140Z,17.80
2018-08-03T01:48:48.392Z,17.77
2018-08-03T01:51:18.634Z,18.03
2018-08-03T01:53:48.908Z,16.10
2018-08-03T01:56:19.159Z,17.10
2018-08-03T01:58:49.429Z,17.50
2018-08-03T02:01:19.685Z,18.07
2018-08-03T02:03:49.971Z,19.17
2018-08-03T02:06:20.194Z,17.70
2018-08-03T02:08:50.496Z,16.63
2018-08-03T02:11:20.763Z,18.87
2018-08-03T02:13:51.403Z,19.20
2018-08-03T02:16:21.720Z,16.67
2018-08-03T02:18:51.988Z,43.97
2018-08-03T02:21:22.269Z,48.10
2018-08-03T02:23:52.578Z,18.10
2018-08-03T02:26:22.818Z,16.67
2018-08-03T02:28:53.358Z,17.23
2018-08-03T02:31:23.648Z,17.90
2018-08-03T02:33:53.905Z,17.07
2018-08-03T02:36:24.199Z,18.20
2018-08-03T02:38:54.480Z,16.53
2018-08-03T02:41:24.761Z,15.40
2018-08-03T02:43:55.020Z,16.53
2018-08-03T02:46:25.296Z,19.93
2018-08-03T02:48:55.577Z,17.90
2018-08-03T02:51:25.818Z,17.93
2018-08-03T02:53:56.110Z,17.30
2018-08-03T02:56:26.360Z,17.73
2018-08-03T02:58:56.653Z,17.57
2018-08-03T03:01:26.892Z,18.60
2018-08-03T03:03:57.218Z,17.63
2018-08-03T03:06:27.492Z,16.07
2018-08-03T03:08:57.789Z,16.07
2018-08-03T03:11:28.053Z,16.83
2018-08-03T03:13:58.379Z,17.27
2018-08-03T03:16:28.632Z,18.57
2018-08-03T03:18:58.896Z,18.87
2018-08-03T03:21:29.155Z,17.67
2018-08-03T03:23:59.458Z,17.30
2018-08-03T03:26:29.738Z,16.83
2018-08-03T03:29:00.040Z,17.57
2018-08-03T03:31:30.416Z,18.13
2018-08-03T03:34:00.701Z,17.10
2018-08-03T03:36:30.978Z,18.17
2018-08-03T03:39:01.205Z,16.83
2018-08-03T03:41:31.495Z,17.70
2018-08-03T03:44:01.768Z,17.30
2018-08-03T03:46:32.032Z,16.80
2018-08-03T03:49:02.263Z,18.23
2018-08-03T03:51:32.587Z,17.70
2018-08-03T03:54:03.120Z,19.30
2018-08-03T03:56:33.385Z,18.20
2018-08-03T03:59:03.629Z,19.33
2018-08-03T04:01:33.936Z,18.00
2018-08-03T04:04:04.206Z,18.10
2018-08-03T04:06:34.499Z,17.40
2018-08-03T04:09:08.401Z,17.37
2018-08-03T04:11:38.694Z,17.33
2018-08-03T04:14:09.086Z,18.30
2018-08-03T04:16:39.532Z,20.60
2018-08-03T04:19:09.793Z,20.23
2018-08-03T04:21:40.119Z,18.57
2018-08-03T04:24:10.400Z,21.03
2018-08-03T04:26:40.692Z,20.33
2018-08-03T04:29:10.957Z,19.13
2018-08-03T04:31:41.200Z,20.63
2018-08-03T04:34:11.517Z,18.83
2018-08-03T04:36:41.785Z,19.57
2018-08-03T04:39:12.027Z,19.13
2018-08-03T04:41:42.304Z,20.17
2018-08-03T04:44:12.565Z,18.73
2018-08-03T04:46:42.884Z,18.53
2018-08-03T04:49:13.176Z,18.93
2018-08-03T04:51:43.508Z,20.87
2018-08-03T04:54:13.809Z,17.73
2018-08-03T04:56:44.116Z,19.03
2018-08-03T04:59:14.390Z,19.47
2018-08-03T05:01:44.689Z,19.80
2018-08-03T05:04:14.962Z,17.10
2018-08-03T05:06:45.289Z,19.30
2018-08-03T05:09:15.643Z,19.73
2018-08-03T05:11:45.877Z,20.07
2018-08-03T05:14:16.180Z,18.80
2018-08-03T05:16:46.466Z,19.37
2018-08-03T05:19:16.779Z,19.90
2018-08-03T05:21:47.053Z,19.20
2018-08-03T05:24:17.460Z,18.87
2018-08-03T05:26:47.677Z,17.93
2018-08-03T05:29:17.963Z,18.07
2018-08-03T05:31:48.252Z,19.10
2018-08-03T05:34:18.570Z,17.97
2018-08-03T05:36:48.846Z,18.17
2018-08-03T05:39:19.180Z,18.53
2018-08-03T05:41:49.460Z,17.13
2018-08-03T05:44:19.778Z,18.30
2018-08-03T05:46:50.048Z,17.77
2018-08-03T05:49:20.344Z,18.83
2018-08-03T05:51:50.630Z,19.00
2018-08-03T05:54:20.990Z,20.10
2018-08-03T05:56:51.285Z,18.57
2018-08-03T05:59:21.622Z,18.90
2018-08-03T06:01:51.894Z,30.23
2018-08-03T06:04:22.257Z,18.70
2018-08-03T06:06:52.598Z,19.70
2018-08-03T06:09:22.841Z,19.33
2018-08-03T06:11:53.160Z,19.37
2018-08-03T06:14:23.528Z,18.57
2018-08-03T06:16:53.849Z,18.20
2018-08-03T06:19:24.101Z,18.10
2018-08-03T06:21:54.446Z,17.77
2018-08-03T06:24:24.721Z,19.17
2018-08-03T06:26:55.035Z,19.20
2018-08-03T06:29:25.308Z,16.87
2018-08-03T06:31:55.682Z,20.10
2018-08-03T06:34:26.089Z,19.37
2018-08-03T06:36:56.373Z,20.00
2018-08-03T06:39:26.660Z,19.00
2018-08-03T06:41:56.932Z,19.40
2018-08-03T06:44:27.252Z,20.00
2018-08-03T06:46:57.561Z,19.07
2018-08-03T06:49:27.847Z,19.17
2018-08-03T06:51:58.150Z,19.07
2018-08-03T06:54:28.540Z,20.17
2018-08-03T06:56:58.818Z,20.33
2018-08-03T06:59:29.122Z,19.90
2018-08-03T07:01:59.449Z,19.13
2018-08-03T07:04:29.781Z,19.63
2018-08-03T07:07:00.013Z,20.00
2018-08-03T07:09:30.335Z,18.90
2018-08-03T07:12:00.690Z,18.70
2018-08-03T07:14:31.025Z,20.63
2018-08-03T07:17:01.511Z,20.57
2018-08-03T07:19:31.765Z,19.57
2018-08-03T07:22:02.085Z,19.40
2018-08-03T07:24:32.408Z,19.50
2018-08-03T07:27:02.689Z,21.03
2018-08-03T07:29:33.002Z,20.20
2018-08-03T07:32:03.422Z,21.80
2018-08-03T07:34:33.738Z,21.20
2018-08-03T07:37:04.076Z,19.73
2018-08-03T07:39:34.437Z,19.73
2018-08-03T07:42:04.818Z,18.07
2018-08-03T07:44:35.189Z,19.07
2018-08-03T07:47:05.444Z,18.30
2018-08-03T07:49:35.750Z,19.40
2018-08-03T07:52:06.128Z,18.27
2018-08-03T07:54:36.481Z,18.37
2018-08-03T07:57:06.778Z,18.43
2018-08-03T07:59:37.085Z,18.43
2018-08-03T08:02:07.472Z,17.60
2018-08-03T08:04:37.722Z,17.60
2018-08-03T08:07:08.006Z,17.23
2018-08-03T08:09:38.372Z,17.37
2018-08-03T08:12:08.743Z,16.50
2018-08-03T08:14:39.022Z,15.43
2018-08-03T08:17:09.389Z,17.03
2018-08-03T08:19:39.669Z,15.07
2018-08-03T08:22:10.000Z,14.63
2018-08-03T08:24:40.388Z,14.83
2018-08-03T08:27:10.761Z,15.37
2018-08-03T08:29:41.088Z,16.90
2018-08-03T08:32:11.419Z,16.53
2018-08-03T08:34:41.700Z,17.90
2018-08-03T08:37:12.035Z,16.83
2018-08-03T08:39:42.320Z,15.33
2018-08-03T08:42:12.604Z,16.53
2018-08-03T08:44:42.960Z,14.93
2018-08-03T08:47:13.281Z,14.63
2018-08-03T08:49:43.605Z,15.90
2018-08-03T08:52:13.888Z,13.83
2018-08-03T08:54:44.277Z,15.80
2018-08-03T08:57:14.577Z,15.67
2018-08-03T08:59:45.195Z,14.47
2018-08-03T09:02:15.533Z,14.40
2018-08-03T09:04:45.843Z,12.70
2018-08-03T09:07:16.133Z,13.27
2018-08-03T09:09:46.431Z,12.80
2018-08-03T09:12:16.713Z,12.77
2018-08-03T09:14:47.028Z,12.10
2018-08-03T09:17:17.461Z,11.80
2018-08-03T09:19:47.788Z,12.97
2018-08-03T09:22:18.116Z,12.03
2018-08-03T09:24:48.536Z,13.73
2018-08-03T09:27:18.831Z,12.23
2018-08-03T09:29:49.181Z,13.23
2018-08-03T09:32:19.488Z,14.07
2018-08-03T09:34:49.824Z,11.97
2018-08-03T09:37:20.243Z,13.37
2018-08-03T09:39:50.525Z,13.50
2018-08-03T09:42:20.825Z,14.13
2018-08-03T09:44:51.119Z,13.87
2018-08-03T09:47:21.468Z,13.70
2018-08-03T09:49:51.780Z,13.80
2018-08-03T09:52:22.100Z,13.63
2018-08-03T09:54:52.457Z,13.40
2018-08-03T09:57:22.730Z,14.17
2018-08-03T09:59:53.021Z,13.27
2018-08-03T10:02:23.309Z,15.47
2018-08-03T10:04:53.649Z,13.93
2018-08-03T10:07:24.083Z,15.60
2018-08-03T10:09:54.462Z,14.03
2018-08-03T10:12:24.772Z,14.40
2018-08-03T10:14:55.105Z,15.97
2018-08-03T10:17:25.424Z,15.80
2018-08-03T10:19:55.772Z,14.50
2018-08-03T10:22:26.198Z,13.90
2018-08-03T10:24:56.480Z,15.17
2018-08-03T10:27:26.762Z,13.47
2018-08-03T10:29:57.048Z,13.17
2018-08-03T10:32:27.313Z,13.53
2018-08-03T10:34:57.726Z,13.63
2018-08-03T10:37:28.065Z,13.30
2018-08-03T10:39:58.393Z,13.27
2018-08-03T10:42:28.724Z,13.47
2018-08-03T10:44:59.065Z,12.73
2018-08-03T10:47:29.378Z,13.10
2018-08-03T10:49:59.656Z,12.77
2018-08-03T10:52:29.688Z,12.00
2018-08-03T10:54:59.891Z,12.13
2018-08-03T10:57:30.201Z,11.37
2018-08-03T11:00:00.805Z,10.60
2018-08-03T11:02:31.237Z,11.70
2018-08-03T11:05:01.537Z,11.80
2018-08-03T11:07:31.832Z,12.20
2018-08-03T11:10:02.196Z,11.90
2018-08-03T11:12:32.448Z,12.23
2018-08-03T11:15:02.816Z,11.60
2018-08-03T11:17:33.165Z,11.07
2018-08-03T11:20:03.514Z,10.47
2018-08-03T11:22:33.944Z,10.80
2018-08-03T11:25:04.328Z,9.57
2018-08-03T11:27:34.725Z,10.20
2018-08-03T11:30:06.197Z,9.37
2018-08-03T11:32:36.732Z,9.20
2018-08-03T11:35:08.397Z,8.80
2018-08-03T11:37:38.683Z,8.67
2018-08-03T11:40:09.689Z,9.30
2018-08-03T11:42:39.966Z,9.70
2018-08-03T11:45:11.221Z,9.13
2018-08-03T11:47:41.556Z,8.83
2018-08-03T11:50:11.899Z,9.63
2018-08-03T11:52:42.245Z,9.37
2018-08-03T11:55:12.565Z,8.40
2018-08-03T11:57:42.871Z,8.67
2018-08-03T12:00:13.504Z,7.70
2018-08-03T12:02:43.832Z,8.70
2018-08-03T12:05:14.085Z,8.10
2018-08-03T12:07:44.430Z,8.67
2018-08-03T12:10:15.122Z,8.03
2018-08-03T12:12:45.466Z,10.27
2018-08-03T12:15:15.785Z,12.67
2018-08-03T12:17:46.115Z,11.27
2018-08-03T12:20:16.341Z,11.10
2018-08-03T12:22:46.662Z,10.90
2018-08-03T12:25:16.951Z,11.13
2018-08-03T12:27:47.258Z,10.40
2018-08-03T12:30:17.593Z,10.30
2018-08-03T12:32:47.872Z,9.73
2018-08-03T12:35:18.196Z,9.97
2018-08-03T12:37:48.485Z,10.43
2018-08-03T12:40:18.751Z,9.97
2018-08-03T12:42:49.048Z,9.97
2018-08-03T12:45:19.325Z,9.77
2018-08-03T12:47:49.698Z,10.30
2018-08-03T12:50:20.022Z,11.00
2018-08-03T12:52:50.393Z,9.70
2018-08-03T12:55:20.658Z,9.67
2018-08-03T12:57:50.981Z,10.33
2018-08-03T13:00:21.278Z,10.20
2018-08-03T13:02:51.625Z,10.10
2018-08-03T13:05:21.910Z,10.67
2018-08-03T13:07:52.428Z,10.20
2018-08-03T13:10:22.595Z,9.70
2018-08-03T13:12:52.884Z,11.37
2018-08-03T13:15:23.184Z,9.57
2018-08-03T13:17:53.469Z,9.70
2018-08-03T13:20:23.777Z,9.47
2018-08-03T13:23:01.277Z,10.03
2018-08-03T13:25:31.914Z,9.40
2018-08-03T13:28:02.227Z,9.80
2018-08-03T13:30:32.644Z,10.93
2018-08-03T13:33:03.022Z,8.77
2018-08-03T13:35:33.309Z,10.40
2018-08-03T13:38:03.645Z,9.23
2018-08-03T13:40:33.900Z,9.93
2018-08-03T13:43:04.253Z,10.37
2018-08-03T13:45:34.580Z,9.40
2018-08-03T13:48:04.864Z,9.80
2018-08-03T13:50:35.165Z,9.00
2018-08-03T13:53:06.056Z,8.70
2018-08-03T13:55:36.301Z,9.50
2018-08-03T13:58:06.652Z,9.13
2018-08-03T14:00:36.962Z,9.87
2018-08-03T14:03:07.579Z,9.47
2018-08-03T14:05:37.872Z,9.83
2018-08-03T14:08:08.164Z,8.93
2018-08-03T14:10:38.501Z,9.43
2018-08-03T14:13:08.538Z,9.10
2018-08-03T14:15:38.737Z,9.10
2018-08-03T14:18:08.733Z,9.50
2018-08-03T14:20:38.922Z,9.60
2018-08-03T14:23:09.211Z,9.10
2018-08-03T14:25:39.517Z,8.90
2018-08-03T14:28:09.520Z,9.50
2018-08-03T14:30:39.712Z,9.10
2018-08-03T14:33:10.055Z,8.27
2018-08-03T14:35:40.360Z,8.53
2018-08-03T14:38:10.703Z,8.30
2018-08-03T14:40:41.029Z,9.00
2018-08-03T14:43:11.272Z,8.70
2018-08-03T14:45:41.615Z,9.30
2018-08-03T14:48:11.904Z,8.70
2018-08-03T14:50:42.225Z,8.70
2018-08-03T14:53:12.482Z,8.60
2018-08-03T14:55:42.829Z,12.73
2018-08-03T14:58:13.191Z,9.40
2018-08-03T15:00:43.870Z,9.20
2018-08-03T15:03:14.246Z,9.33
2018-08-03T15:05:44.527Z,8.70
2018-08-03T15:08:14.904Z,8.87
2018-08-03T15:10:45.307Z,9.30
2018-08-03T15:13:15.654Z,8.40
2018-08-03T15:15:45.997Z,8.70
2018-08-03T15:18:15.982Z,8.93
2018-08-03T15:20:46.259Z,9.20
2018-08-03T15:23:16.503Z,9.60
2018-08-03T15:25:46.802Z,8.10
2018-08-03T15:28:17.167Z,8.47
2018-08-03T15:30:47.508Z,9.00
2018-08-03T15:33:17.840Z,8.30
2018-08-03T15:35:48.133Z,9.40
2018-08-03T15:38:18.696Z,9.13
2018-08-03T15:40:49.103Z,8.07
2018-08-03T15:43:19.375Z,8.87
2018-08-03T15:45:49.728Z,8.43
2018-08-03T15:48:20.046Z,8.87
2018-08-03T15:50:50.342Z,8.83
2018-08-03T15:53:20.635Z,9.00
2018-08-03T15:55:51.011Z,8.17
2018-08-03T15:58:21.391Z,9.60
2018-08-03T16:00:51.709Z,8.60
2018-08-03T16:03:22.045Z,9.70
2018-08-03T16:05:52.352Z,9.23
2018-08-03T16:08:22.627Z,9.10
2018-08-03T16:10:52.961Z,9.23
2018-08-03T16:13:23.249Z,9.53
2018-08-03T16:15:53.261Z,9.47
2018-08-03T16:18:23.469Z,9.07
2018-08-03T16:20:53.793Z,8.97
2018-08-03T16:23:24.068Z,9.23
2018-08-03T16:25:54.618Z,8.70
2018-08-03T16:28:24.969Z,8.70
2018-08-03T16:30:55.294Z,8.80
2018-08-03T16:33:25.564Z,8.93
2018-08-03T16:35:55.864Z,9.07
2018-08-03T16:38:26.270Z,9.33
2018-08-03T16:40:56.657Z,8.83
2018-08-03T16:43:26.998Z,9.60
2018-08-03T16:45:57.333Z,9.63
2018-08-03T16:48:27.969Z,9.57
2018-08-03T16:50:58.325Z,9.40
2018-08-03T16:53:28.753Z,10.90
2018-08-03T16:55:58.774Z,10.33
2018-08-03T16:58:29.010Z,10.23
2018-08-03T17:00:59.328Z,13.20
2018-08-03T17:03:29.654Z,10.10
2018-08-03T17:06:00.009Z,10.93
2018-08-03T17:08:30.345Z,11.93
2018-08-03T17:11:00.668Z,10.43
2018-08-03T17:13:30.989Z,10.40
2018-08-03T17:16:01.254Z,11.00
2018-08-03T17:18:31.604Z,11.13
2018-08-03T17:21:01.923Z,10.50
2018-08-03T17:23:32.227Z,11.37
2018-08-03T17:26:02.561Z,11.30
2018-08-03T17:28:32.854Z,9.93
2018-08-03T17:31:03.128Z,11.03
2018-08-03T17:33:33.450Z,11.53
2018-08-03T17:36:03.767Z,10.90
2018-08-03T17:38:34.073Z,10.67
2018-08-03T17:41:04.373Z,10.30
2018-08-03T17:43:34.693Z,10.17
2018-08-03T17:46:05.514Z,10.80
2018-08-03T17:48:35.851Z,10.73
2018-08-03T17:51:06.257Z,10.97
2018-08-03T17:53:36.581Z,10.30
2018-08-03T17:56:07.134Z,10.77
2018-08-03T17:58:37.417Z,11.87
2018-08-03T18:01:07.805Z,10.83
2018-08-03T18:03:38.081Z,11.80
2018-08-03T18:06:08.380Z,10.17
2018-08-03T18:08:38.751Z,10.40
2018-08-03T18:11:09.223Z,10.20
2018-08-03T18:13:39.912Z,11.37
2018-08-03T18:16:10.833Z,11.23
2018-08-03T18:18:41.199Z,10.77
2018-08-03T18:21:11.542Z,10.43
2018-08-03T18:23:41.872Z,11.43
2018-08-03T18:26:12.194Z,11.50
2018-08-03T18:28:42.486Z,11.87
2018-08-03T18:31:12.795Z,12.13
2018-08-03T18:33:43.122Z,12.20
2018-08-03T18:36:13.448Z,12.70
2018-08-03T18:38:43.777Z,12.70
2018-08-03T18:41:14.068Z,14.90
2018-08-03T18:43:44.358Z,16.60
2018-08-03T18:46:14.754Z,14.97
2018-08-03T18:48:44.957Z,14.00
2018-08-03T18:51:15.278Z,15.03
2018-08-03T18:53:45.590Z,14.90
2018-08-03T18:56:15.949Z,15.43
2018-08-03T18:58:46.260Z,14.57
2018-08-03T19:01:16.588Z,15.67
2018-08-03T19:03:46.911Z,14.40
2018-08-03T19:06:17.248Z,14.80
2018-08-03T19:08:47.513Z,13.67
2018-08-03T19:11:17.896Z,14.47
2018-08-03T19:13:48.214Z,13.90
2018-08-03T19:16:18.533Z,13.93
2018-08-03T19:18:48.913Z,14.63
2018-08-03T19:21:19.205Z,13.80
2018-08-03T19:23:49.516Z,13.70
2018-08-03T19:26:19.852Z,13.03
2018-08-03T19:28:50.193Z,14.07
2018-08-03T19:31:20.525Z,13.43
2018-08-03T19:33:50.820Z,13.10
2018-08-03T19:36:21.136Z,13.97
2018-08-03T19:38:51.417Z,13.60
2018-08-03T19:41:21.968Z,13.43
2018-08-03T19:43:52.233Z,13.73
2018-08-03T19:46:22.581Z,14.30
2018-08-03T19:48:52.861Z,13.97
2018-08-03T19:51:23.204Z,13.80
2018-08-03T19:53:53.518Z,13.20
2018-08-03T19:56:23.901Z,14.37
2018-08-03T19:58:54.522Z,14.23
2018-08-03T20:01:24.814Z,12.87
2018-08-03T20:03:55.253Z,14.73
2018-08-03T20:06:25.517Z,13.37
2018-08-03T20:08:55.945Z,13.93
2018-08-03T20:11:26.246Z,14.57
2018-08-03T20:13:56.667Z,13.60
2018-08-03T20:16:26.839Z,14.07
2018-08-03T20:18:57.145Z,13.97
2018-08-03T20:21:27.453Z,14.00
2018-08-03T20:23:57.800Z,13.47
2018-08-03T20:26:28.215Z,13.63
2018-08-03T20:28:58.518Z,14.70
2018-08-03T20:31:28.939Z,12.73
2018-08-03T20:33:59.251Z,13.73
2018-08-03T20:36:29.565Z,13.30
2018-08-03T20:38:59.844Z,14.07
2018-08-03T20:41:30.916Z,13.80
2018-08-03T20:44:01.200Z,13.43
2018-08-03T20:46:31.438Z,14.30
2018-08-03T20:49:01.695Z,13.90
2018-08-03T20:51:32.068Z,14.07
2018-08-03T20:54:02.326Z,13.90
2018-08-03T20:56:32.680Z,13.13
2018-08-03T20:59:03.051Z,14.33
2018-08-03T21:01:34.276Z,16.17
2018-08-03T21:04:04.549Z,15.23
2018-08-03T21:06:34.513Z,15.10
2018-08-03T21:09:06.991Z,15.93
2018-08-03T21:11:37.409Z,14.47
2018-08-03T21:14:07.836Z,13.60
2018-08-03T21:16:38.594Z,14.23
2018-08-03T21:19:09.009Z,13.47
2018-08-03T21:21:39.318Z,13.27
2018-08-03T21:24:09.935Z,14.77
2018-08-03T21:26:40.261Z,13.13
2018-08-03T21:29:10.534Z,14.80
2018-08-03T21:31:40.878Z,14.43
2018-08-03T21:34:11.128Z,14.33
2018-08-03T21:36:41.440Z,14.90
2018-08-03T21:39:12.522Z,14.20
2018-08-03T21:41:42.813Z,14.20
2018-08-03T21:44:13.101Z,14.43
2018-08-03T21:46:43.399Z,14.00
2018-08-03T21:49:13.682Z,14.20
2018-08-03T21:51:44.032Z,15.63
2018-08-03T21:54:14.348Z,13.80
2018-08-03T21:56:44.637Z,14.03
2018-08-03T21:59:14.987Z,14.30
2018-08-03T22:01:45.297Z,14.53
2018-08-03T22:04:15.607Z,14.67
2018-08-03T22:06:45.905Z,14.70
2018-08-03T22:09:16.353Z,14.63
2018-08-03T22:11:46.647Z,15.17
2018-08-03T22:14:16.985Z,14.40
2018-08-03T22:16:47.290Z,16.00
2018-08-03T22:19:17.592Z,14.90
2018-08-03T22:21:47.873Z,13.80
2018-08-03T22:24:18.271Z,15.13
2018-08-03T22:26:48.641Z,15.60
2018-08-03T22:29:18.944Z,14.27
2018-08-03T22:31:48.963Z,14.37
2018-08-03T22:34:19.160Z,14.67
2018-08-03T22:36:49.438Z,14.53
2018-08-03T22:39:19.932Z,14.67
2018-08-03T22:41:50.655Z,13.77
2018-08-03T22:44:20.925Z,15.13
2018-08-03T22:46:51.216Z,14.27
2018-08-03T22:49:21.485Z,14.97
2018-08-03T22:51:51.746Z,14.33
2018-08-03T22:54:22.173Z,14.50
2018-08-03T22:56:53.557Z,14.40
2018-08-03T22:59:23.924Z,13.97
2018-08-03T23:01:54.189Z,14.53
2018-08-03T23:04:24.462Z,15.33
2018-08-03T23:06:54.800Z,15.83
2018-08-03T23:09:25.157Z,15.57
2018-08-03T23:11:55.473Z,15.60
2018-08-03T23:14:25.771Z,14.67
2018-08-03T23:16:56.832Z,14.93
2018-08-03T23:19:27.310Z,13.63
2018-08-03T23:21:57.590Z,15.57
2018-08-03T23:24:27.981Z,14.40
2018-08-03T23:26:58.351Z,14.63
2018-08-03T23:29:28.780Z,15.80
2018-08-03T23:31:59.124Z,14.27
2018-08-03T23:34:29.469Z,14.53
2018-08-03T23:36:59.794Z,14.57
2018-08-03T23:39:30.131Z,14.00
2018-08-03T23:42:00.829Z,13.50
2018-08-03T23:44:31.205Z,15.10
2018-08-03T23:47:01.633Z,14.43
2018-08-03T23:49:32.014Z,14.67
2018-08-03T23:52:02.294Z,14.47
2018-08-03T23:54:32.834Z,14.03
2018-08-03T23:57:03.138Z,14.13
2018-08-03T23:59:33.492Z,15.30
